Station info - map view · info · telemetry · weather · raw · status · beacons · messages · bulletins · browse · moving · my account
Callsign, ship name or locator: Clear       
It is possible to search using wildcards (*?) after a prefix. Example: OH*
APRS station N7OYD-7 - show graphs
Map loading...
Comment: SAG-2
Mic-E message: In service
Location: 47°27.41' N 121°44.43' W - locator CN97DK19DP - show map - static map
0.8 miles Southeast bearing 145° from Riverbend, King County, Washington, United States [?]
1.3 miles South bearing 168° from Tanner, King County, Washington, United States
29.4 miles East bearing 110° from Seattle, King County, Washington, United States
35.8 miles Northeast bearing 67° from Tacoma, Pierce County, Washington, United States
Last position: 2016-09-27 01:28:17 EDT (2d 13h13m ago)
2016-09-26 22:28:17 PDT local time at Riverbend, United States [?]
Altitude: 942 ft
Course:
Speed: 25 MPH
Device: Kenwood: TM-D700 (rig)
Last path: N7OYD-7>T7RWTQ via SNOVAL*,VE7SLC-7*,WIDE2-1,qAR,VE7RYF-10 (good)
Positions stored: 49114
Packet rate: 71 seconds between packets on average during 3568 seconds.
Stations near current position of N7OYD-7 - show more
callsign distance last heard - EDT      callsign distance last heard - EDT
SNOVAL1.2 miles 17°2016-09-29 14:13:18 CW53161.6 miles 232°2016-09-29 14:40:38
KC7EWE-92.3 miles 22°2016-09-03 15:44:37 WE7U-12.7 miles 65°2016-09-09 21:55:18
N6NBN2.8 miles 80°2016-09-10 17:13:06 WA7VC B2.8 miles 76°2016-09-29 14:26:08
WA7VC-B2.8 miles 76°2016-09-29 14:26:18 KB7UVC-12.9 miles 77°2016-09-09 00:21:32
KB7UVC-22.9 miles 77°2016-09-10 20:59:34 K7FZO-12.9 miles 76°2016-09-12 19:19:08
IRLP-78082.9 miles 76°2016-09-29 14:30:02 WA7FOX2.9 miles 79°2016-09-09 20:01:07
EW77712.9 miles 76°2016-09-29 14:36:51 KD7DK-12.9 miles 79°2016-09-11 00:56:30
KB7UVC-52.9 miles 79°2016-09-10 22:15:42 WA7VC2.9 miles 79°2016-09-27 16:07:08
WA7VC-102.9 miles 79°2016-09-29 14:32:53 N7ERM3.1 miles 220°2016-09-21 20:11:18
DW48273.4 miles 329°2016-09-29 14:40:05 N7SNO-B3.9 miles 282°2016-09-29 14:40:34
Stations which heard N7OYD-7 directly on radio –
callsign pkts first heard - EDT last heard longest (tx => rx) longest at - EDT
HEBOWX 1 2016-09-24 13:57:49 2016-09-24 13:57:49 CN85MC > CN85CF 41.3 miles 280° 2016-09-24 13:57:49
LARCH 20 2016-09-24 12:20:12 2016-09-24 14:20:33 CN84LW > CN85UR 66.0 miles 33° 2016-09-24 14:20:33
BALDI 29 2016-09-11 15:55:59 2016-09-27 00:53:24 CN87SE > CN97BF 29.0 miles 88° 2016-09-24 10:34:10
N7QXO-9 10 2016-09-24 11:49:10 2016-09-24 12:44:54 CN86NG > CN85MX 22.5 miles 191° 2016-09-24 11:49:10
BULLMT 3 2016-09-24 12:15:16 2016-09-24 12:57:18 CN85PV > CN85OK 34.1 miles 187° 2016-09-24 12:15:16
OLY 5 2016-09-24 10:47:29 2016-09-24 11:02:54 CN87PB > CN87NA 12.4 miles 245° 2016-09-24 10:47:29
AC7TK 18 2016-09-24 15:20:25 2016-09-24 15:51:41 CN84LI > CN84LB 18.2 miles 180° 2016-09-24 15:20:25
DOUGCO 1 2016-09-24 15:56:52 2016-09-24 15:56:52 CN84IB > CN83KE 59.6 miles 173° 2016-09-24 15:56:52
SOMTN 5 2016-09-24 10:22:53 2016-09-27 01:09:19 CN97GJ > CN87HH 87.3 miles 267° 2016-09-27 01:09:19
N8WCR 3 2016-09-24 12:34:38 2016-09-24 12:53:09 CN85PT > CN85QQ 10.2 miles 158° 2016-09-24 12:34:38
ERINB 2 2016-09-26 23:08:49 2016-09-26 23:10:30 CN97CL > CN87MQ 56.3 miles 284° 2016-09-26 23:10:30
TIGER 6 2016-09-11 20:26:43 2016-09-24 10:13:36 CN87WH > CN97AM 14.8 miles 33° 2016-09-24 10:13:36
W7GC-4 2 2016-09-24 13:50:19 2016-09-24 13:57:46 CN85OE > CN85CF 44.9 miles 271° 2016-09-24 13:50:19
DRAIN 2 2016-09-24 15:23:31 2016-09-24 15:30:52 CN84LH > CN83IP 47.5 miles 196° 2016-09-24 15:23:31
SNOPAS 77 2016-09-11 15:44:45 2016-09-27 01:13:43 CN97FJ > CN97HK 7.8 miles 84° 2016-09-26 23:18:08
SNOVAL 18 2016-09-11 15:34:29 2016-09-27 01:23:27 CN97EK > CN97DL 5.8 miles 302° 2016-09-27 01:17:46
K2NXF-1 3 2016-09-24 13:09:45 2016-09-24 13:11:48 CN85PM > CN85PL 1.8 miles 200° 2016-09-24 13:09:45
EUGENE 9 2016-09-24 15:31:53 2016-09-24 16:08:09 CN84HB > CN84KC 10.8 miles 70° 2016-09-24 16:08:09
K7LWV 1 2016-09-24 14:22:38 2016-09-24 14:22:38 CN84LV > CN84IV 14.1 miles 271° 2016-09-24 14:22:38
LOKOUT 4 2016-09-24 12:18:10 2016-09-24 12:31:33 CN85PU > CN85WT 29.3 miles 99° 2016-09-24 12:18:10
AA9MQ-10 1 2016-09-24 10:14:36 2016-09-24 10:14:36 CN87VH > CN87VH 0.7 miles 316° 2016-09-24 10:14:36
KB6YAF-10 6 2016-09-24 10:46:27 2016-09-24 10:55:41 CN87QC > CN87PB 5.5 miles 240° 2016-09-24 10:46:27
W7SRA 8 2016-09-24 13:55:39 2016-09-24 14:23:43 CN85ND > CN84KU 23.2 miles 208° 2016-09-24 13:55:39
W7KKX-11 1 2016-09-24 09:47:30 2016-09-24 09:47:30 CN97CL > CN87VR 26.5 miles 308° 2016-09-24 09:47:30
W7HR-1 39 2016-09-11 15:32:22 2016-09-27 01:25:29 CN97DK > CN87RN 40.3 miles 280° 2016-09-26 23:11:52
SNOHO 2 2016-09-11 22:48:04 2016-09-11 23:08:37 CN97CL > CN87XW 35.9 miles 335° 2016-09-11 23:08:37
N7BDW-10 2 2016-09-24 12:19:10 2016-09-24 12:51:05 CN85PU > CN85PR 9.3 miles 181° 2016-09-24 12:19:10
WB7QAZ-10 1 2016-09-24 13:45:04 2016-09-24 13:45:04 CN85OG > CN85QG 7.4 miles 85° 2016-09-24 13:45:04
BRNSVL 6 2016-09-24 13:53:32 2016-09-24 16:05:05 CN85NE > CN84NJ 53.1 miles 180° 2016-09-24 13:53:32
WLTRVL 4 2016-09-24 15:38:02 2016-09-24 15:48:37 CN84JB > CN84OB 16.9 miles 88° 2016-09-24 15:48:37
N7TNG-1 1 2016-09-24 12:58:21 2016-09-24 12:58:21 CN85PO > CN85PP 1.4 miles 350° 2016-09-24 12:58:21
WA7SUP 1 2016-09-24 13:16:57 2016-09-24 13:16:57 CN85PK > CN85MH 13.3 miles 228° 2016-09-24 13:16:57
WF7R-10 1 2016-09-24 09:45:48 2016-09-24 09:45:48 CN97CL > CN87UU 34.9 miles 316° 2016-09-24 09:45:48
WA7VC-10 53 2016-09-11 15:36:31 2016-09-27 01:24:28 CN97CM > CN97DL 7.9 miles 115° 2016-09-24 09:50:55
K7ZS-10 17 2016-09-24 12:21:15 2016-09-24 13:37:48 CN85PT > CN85LJ 33.3 miles 211° 2016-09-24 12:21:15
KI7GMM-10 1 2016-09-24 09:46:49 2016-09-24 09:46:49 CN97CL > CN87WP 20.4 miles 303° 2016-09-24 09:46:49

Only position packets which were originated by the station are shown here. The range statistics show some extra long hops, because some digipeaters do not correctly add themselves to the digipeater path. Please check the raw packets.
About this site
This page shows real-time information collected from the Automatic Position Reporting System Internet network (APRS-IS). APRS is used by amateur (ham) radio operators to transmit real-time position information, weather data, telemetry and messages over the radio. A vehicle equipped with a GPS receiver, a VHF transmitter or HF transceiver and a small computer device called a tracker transmits it's location, speed and course in a small data packet, which is then received by a nearby iGate receiving site which forwards the packet on the Internet. Systems connected to the Internet can send information on the APRS-IS without a radio transmitter, or collect and display information transmitted anywhere in the world.
FAQ · Blog · Discussion group · Linking to aprs.fi · AIS sites · Service status · Database statistics · Advertising on aprs.fi · Technical details · API · Change log · Planned changes · Credits and thanks · Terms Of Service · iPhone/iPad APRS